createdAt,value
2017-09-03T00:00:15.152Z,7.33
2017-09-03T00:02:43.687Z,7.37
2017-09-03T00:05:12.136Z,7.77
2017-09-03T00:07:40.640Z,7.80
2017-09-03T00:10:09.138Z,7.57
2017-09-03T00:12:37.568Z,7.03
2017-09-03T00:15:06.085Z,6.93
2017-09-03T00:17:34.572Z,7.60
2017-09-03T00:20:03.068Z,8.27
2017-09-03T00:22:31.508Z,8.40
2017-09-03T00:25:00.737Z,8.13
2017-09-03T00:27:29.222Z,7.07
2017-09-03T00:29:57.670Z,8.60
2017-09-03T00:32:26.187Z,7.90
2017-09-03T00:34:54.642Z,7.67
2017-09-03T00:37:23.152Z,7.43
2017-09-03T00:39:51.634Z,7.33
2017-09-03T00:42:20.104Z,7.43
2017-09-03T00:44:48.588Z,8.17
2017-09-03T00:47:17.032Z,7.60
2017-09-03T00:49:45.462Z,6.23
2017-09-03T00:52:13.932Z,6.50
2017-09-03T00:54:42.365Z,6.67
2017-09-03T00:57:10.906Z,6.93
2017-09-03T00:59:39.325Z,6.23
2017-09-03T01:02:07.764Z,7.13
2017-09-03T01:04:36.205Z,5.80
2017-09-03T01:07:04.661Z,6.00
2017-09-03T01:09:33.079Z,6.87
2017-09-03T01:12:01.536Z,7.77
2017-09-03T01:14:30.065Z,6.93
2017-09-03T01:16:58.522Z,7.20
2017-09-03T01:19:26.947Z,6.77
2017-09-03T01:21:55.507Z,7.67
2017-09-03T01:24:23.923Z,7.37
2017-09-03T01:26:52.460Z,7.90
2017-09-03T01:29:20.947Z,8.10
2017-09-03T01:31:49.374Z,8.00
2017-09-03T01:34:17.914Z,7.40
2017-09-03T01:36:46.409Z,8.80
2017-09-03T01:39:14.855Z,7.97
2017-09-03T01:41:43.375Z,8.70
2017-09-03T01:44:11.862Z,7.67
2017-09-03T01:46:40.336Z,7.70
2017-09-03T01:49:08.807Z,7.20
2017-09-03T01:51:37.241Z,6.83
2017-09-03T01:54:05.777Z,7.20
2017-09-03T01:56:34.241Z,7.93
2017-09-03T01:59:02.730Z,7.70
2017-09-03T02:01:31.156Z,7.47
2017-09-03T02:03:59.704Z,8.13
2017-09-03T02:06:28.123Z,7.03
2017-09-03T02:08:56.669Z,7.47
2017-09-03T02:11:25.138Z,7.07
2017-09-03T02:13:53.631Z,8.23
2017-09-03T02:16:22.106Z,8.17
2017-09-03T02:18:50.596Z,7.40
2017-09-03T02:21:19.070Z,8.10
2017-09-03T02:23:47.490Z,6.80
2017-09-03T02:26:16.030Z,7.77
2017-09-03T02:28:44.519Z,8.67
2017-09-03T02:31:13.009Z,7.53
2017-09-03T02:33:41.436Z,7.87
2017-09-03T02:36:09.876Z,8.73
2017-09-03T02:38:38.352Z,9.13
2017-09-03T02:41:06.831Z,7.37
2017-09-03T02:43:35.257Z,6.90
2017-09-03T02:46:03.709Z,8.37
2017-09-03T02:48:32.186Z,7.67
2017-09-03T02:51:00.631Z,8.60
2017-09-03T02:53:29.145Z,8.27
2017-09-03T02:55:57.593Z,9.00
2017-09-03T02:58:26.095Z,8.70
2017-09-03T03:00:54.545Z,9.47
2017-09-03T03:03:22.973Z,9.00
2017-09-03T03:05:51.427Z,8.50
2017-09-03T03:08:19.857Z,8.00
2017-09-03T03:10:48.412Z,8.80
2017-09-03T03:13:16.903Z,10.30
2017-09-03T03:15:45.376Z,9.37
2017-09-03T03:18:13.941Z,9.17
2017-09-03T03:20:42.436Z,9.40
2017-09-03T03:23:10.935Z,8.70
2017-09-03T03:25:39.415Z,8.10
2017-09-03T03:28:07.883Z,7.87
2017-09-03T03:30:36.308Z,9.53
2017-09-03T03:33:04.753Z,9.67
2017-09-03T03:35:33.227Z,9.50
2017-09-03T03:38:01.687Z,9.10
2017-09-03T03:40:30.204Z,9.53
2017-09-03T03:42:58.643Z,9.60
2017-09-03T03:45:27.164Z,10.07
2017-09-03T03:47:55.635Z,9.13
2017-09-03T03:50:24.116Z,10.70
2017-09-03T03:52:52.599Z,10.10
2017-09-03T03:55:21.098Z,10.30
2017-09-03T03:57:49.553Z,9.13
2017-09-03T04:00:18.051Z,11.90
2017-09-03T04:02:46.532Z,10.30
2017-09-03T04:05:14.955Z,11.63
2017-09-03T04:07:43.486Z,13.07
2017-09-03T04:10:11.981Z,11.87
2017-09-03T04:12:40.426Z,13.37
2017-09-03T04:15:08.940Z,11.60
2017-09-03T04:17:37.440Z,10.60
2017-09-03T04:20:05.907Z,11.30
2017-09-03T04:22:34.383Z,9.90
2017-09-03T04:25:02.806Z,10.60
2017-09-03T04:27:31.352Z,10.13
2017-09-03T04:29:59.771Z,11.50
2017-09-03T04:32:28.221Z,11.73
2017-09-03T04:34:56.668Z,9.37
2017-09-03T04:37:25.185Z,11.30
2017-09-03T04:39:53.652Z,11.30
2017-09-03T04:42:22.080Z,11.80
2017-09-03T04:44:50.522Z,10.93
2017-09-03T04:47:19.015Z,11.50
2017-09-03T04:49:47.479Z,12.70
2017-09-03T04:52:15.979Z,10.70
2017-09-03T04:54:44.427Z,11.43
2017-09-03T04:57:12.970Z,10.20
2017-09-03T04:59:41.413Z,10.33
2017-09-03T05:02:09.886Z,9.57
2017-09-03T05:04:38.405Z,10.40
2017-09-03T05:07:06.855Z,11.40
2017-09-03T05:09:35.312Z,9.33
2017-09-03T05:12:03.835Z,11.07
2017-09-03T05:14:32.419Z,10.47
2017-09-03T05:17:00.842Z,8.90
2017-09-03T05:19:29.304Z,8.67
2017-09-03T05:21:57.760Z,9.40
2017-09-03T05:24:26.246Z,8.57
2017-09-03T05:26:54.706Z,9.43
2017-09-03T05:29:23.195Z,10.13
2017-09-03T05:31:51.620Z,9.70
2017-09-03T05:34:20.155Z,8.67
2017-09-03T05:36:48.588Z,10.37
2017-09-03T05:39:17.132Z,9.93
2017-09-03T05:41:45.602Z,9.40
2017-09-03T05:44:14.036Z,10.83
2017-09-03T05:46:42.589Z,9.97
2017-09-03T05:49:11.060Z,11.00
2017-09-03T05:51:39.495Z,10.50
2017-09-03T05:54:08.015Z,10.07
2017-09-03T05:56:36.482Z,11.73
2017-09-03T05:59:04.989Z,11.30
2017-09-03T06:01:33.435Z,11.50
2017-09-03T06:04:02.121Z,11.80
2017-09-03T06:06:30.575Z,11.03
2017-09-03T06:08:59.003Z,15.10
2017-09-03T06:11:27.518Z,17.03
2017-09-03T06:13:55.966Z,21.30
2017-09-03T06:16:24.470Z,15.80
2017-09-03T06:18:52.900Z,12.00
2017-09-03T06:21:21.384Z,13.20
2017-09-03T06:23:49.817Z,12.60
2017-09-03T06:26:18.243Z,12.20
2017-09-03T06:28:46.696Z,11.70
2017-09-03T06:31:15.133Z,12.53
2017-09-03T06:33:43.845Z,11.97
2017-09-03T06:36:12.279Z,11.20
2017-09-03T06:38:40.795Z,10.67
2017-09-03T06:41:09.297Z,12.17
2017-09-03T06:43:37.884Z,11.83
2017-09-03T06:46:06.320Z,11.93
2017-09-03T06:48:34.833Z,10.43
2017-09-03T06:51:03.719Z,11.53
2017-09-03T06:53:32.204Z,10.70
2017-09-03T06:56:00.641Z,10.40
2017-09-03T06:58:29.181Z,11.30
2017-09-03T07:00:57.649Z,9.23
2017-09-03T07:03:26.109Z,10.10
2017-09-03T07:05:54.549Z,8.97
2017-09-03T07:08:23.087Z,9.87
2017-09-03T07:10:51.506Z,9.40
2017-09-03T07:13:20.056Z,8.10
2017-09-03T07:15:49.095Z,8.00
2017-09-03T07:18:17.635Z,7.43
2017-09-03T07:20:46.121Z,10.13
2017-09-03T07:23:14.567Z,8.07
2017-09-03T07:25:42.996Z,8.60
2017-09-03T07:28:11.464Z,7.20
2017-09-03T07:30:39.901Z,7.77
2017-09-03T07:33:08.339Z,6.10
2017-09-03T07:35:36.779Z,7.37
2017-09-03T07:38:05.257Z,5.47
2017-09-03T07:40:33.890Z,6.40
2017-09-03T07:43:02.319Z,5.20
2017-09-03T07:45:30.764Z,5.50
2017-09-03T07:47:59.180Z,6.43
2017-09-03T07:50:27.627Z,5.97
2017-09-03T07:52:56.061Z,5.60
2017-09-03T07:55:24.551Z,5.50
2017-09-03T07:57:52.972Z,5.47
2017-09-03T08:00:21.522Z,5.27
2017-09-03T08:02:50.013Z,4.60
2017-09-03T08:05:18.466Z,4.83
2017-09-03T08:07:46.895Z,3.90
2017-09-03T08:10:15.564Z,2.73
2017-09-03T08:12:44.035Z,4.00
2017-09-03T08:15:12.484Z,4.33
2017-09-03T08:17:40.921Z,3.77
2017-09-03T08:20:09.381Z,4.27
2017-09-03T08:22:37.802Z,3.20
2017-09-03T08:25:06.244Z,4.23
2017-09-03T08:27:34.734Z,4.60
2017-09-03T08:30:03.213Z,2.60
2017-09-03T08:32:31.644Z,2.63
2017-09-03T08:35:00.088Z,3.57
2017-09-03T08:37:28.511Z,2.50
2017-09-03T08:39:56.973Z,2.60
2017-09-03T08:42:25.399Z,3.00
2017-09-03T08:44:53.905Z,5.33
2017-09-03T08:47:22.376Z,2.83
2017-09-03T08:49:50.856Z,4.60
2017-09-03T08:52:19.330Z,3.97
2017-09-03T08:54:48.175Z,3.20
2017-09-03T08:57:16.711Z,2.47
2017-09-03T08:59:45.190Z,4.33
2017-09-03T09:02:13.676Z,2.83
2017-09-03T09:04:42.095Z,2.43
2017-09-03T09:07:10.549Z,2.03
2017-09-03T09:09:38.984Z,1.70
2017-09-03T09:12:07.453Z,1.53
2017-09-03T09:14:35.886Z,1.77
2017-09-03T09:17:04.339Z,2.17
2017-09-03T09:19:32.762Z,1.90
2017-09-03T09:22:01.206Z,1.67
2017-09-03T09:24:29.646Z,1.70
2017-09-03T09:26:58.087Z,1.80
2017-09-03T09:29:26.516Z,2.50
2017-09-03T09:31:54.963Z,1.47
2017-09-03T09:34:23.397Z,2.03
2017-09-03T09:36:52.616Z,2.50
2017-09-03T09:39:21.053Z,2.20
2017-09-03T09:41:49.587Z,2.23
2017-09-03T09:44:18.072Z,1.73
2017-09-03T09:46:46.529Z,2.10
2017-09-03T09:49:14.966Z,2.20
2017-09-03T09:51:43.431Z,2.03
2017-09-03T09:54:11.856Z,2.40
2017-09-03T09:56:40.317Z,1.80
2017-09-03T09:59:08.754Z,2.10
2017-09-03T10:01:37.248Z,2.23
2017-09-03T10:04:05.741Z,2.07
2017-09-03T10:06:34.996Z,2.00
2017-09-03T10:09:04.437Z,1.63
2017-09-03T10:11:32.925Z,1.80
2017-09-03T10:14:01.406Z,1.60
2017-09-03T10:16:29.846Z,1.97
2017-09-03T10:18:58.304Z,1.90
2017-09-03T10:21:26.736Z,1.63
2017-09-03T10:23:55.196Z,2.27
2017-09-03T10:26:23.709Z,2.30
2017-09-03T10:28:52.193Z,2.00
2017-09-03T10:31:20.684Z,2.00
2017-09-03T10:33:49.162Z,1.67
2017-09-03T10:36:17.641Z,1.70
2017-09-03T10:38:46.100Z,1.60
2017-09-03T10:41:14.533Z,1.60
2017-09-03T10:43:43.071Z,2.63
2017-09-03T10:46:11.551Z,1.57
2017-09-03T10:48:40.044Z,2.10
2017-09-03T10:51:08.469Z,1.70
2017-09-03T10:53:36.917Z,1.87
2017-09-03T10:56:05.373Z,1.40
2017-09-03T10:58:33.818Z,1.67
2017-09-03T11:01:02.348Z,1.53
2017-09-03T11:03:30.842Z,1.90
2017-09-03T11:05:59.284Z,1.50
2017-09-03T11:08:27.787Z,1.93
2017-09-03T11:10:56.281Z,1.37
2017-09-03T11:13:24.765Z,2.63
2017-09-03T11:15:53.257Z,2.40
2017-09-03T11:18:21.728Z,1.30
2017-09-03T11:20:50.198Z,1.83
2017-09-03T11:23:18.687Z,1.30
2017-09-03T11:25:47.164Z,1.83
2017-09-03T11:28:15.589Z,1.40
2017-09-03T11:30:44.136Z,1.50
2017-09-03T11:33:12.611Z,1.40
2017-09-03T11:35:41.091Z,1.87
2017-09-03T11:38:09.521Z,2.00
2017-09-03T11:40:37.974Z,2.20
2017-09-03T11:43:06.444Z,1.77
2017-09-03T11:45:34.889Z,1.97
2017-09-03T11:48:03.311Z,1.90
2017-09-03T11:50:31.788Z,1.80
2017-09-03T11:53:00.215Z,2.30
2017-09-03T11:55:28.655Z,1.77
2017-09-03T11:57:57.144Z,3.27
2017-09-03T12:00:25.613Z,3.97
2017-09-03T12:02:54.040Z,2.63
2017-09-03T12:05:22.488Z,3.03
2017-09-03T12:07:50.966Z,2.70
2017-09-03T12:10:19.441Z,2.03
2017-09-03T12:12:47.881Z,2.30
2017-09-03T12:15:16.400Z,2.00
2017-09-03T12:17:44.875Z,1.33
2017-09-03T12:20:13.305Z,1.20
2017-09-03T12:22:41.848Z,1.53
2017-09-03T12:25:11.144Z,1.60
2017-09-03T12:27:39.604Z,1.70
2017-09-03T12:30:08.113Z,1.40
2017-09-03T12:32:36.581Z,3.23
2017-09-03T12:35:05.007Z,1.40
2017-09-03T12:37:33.546Z,1.63
2017-09-03T12:40:01.967Z,1.67
2017-09-03T12:42:30.489Z,1.47
2017-09-03T12:44:59.004Z,1.20
2017-09-03T12:47:27.500Z,1.43
2017-09-03T12:49:55.968Z,1.77
2017-09-03T12:52:24.426Z,2.00
2017-09-03T12:54:52.856Z,1.70
2017-09-03T12:57:21.287Z,1.60
2017-09-03T12:59:49.792Z,1.60
2017-09-03T13:02:18.246Z,1.70
2017-09-03T13:04:47.440Z,1.70
2017-09-03T13:07:15.967Z,1.13
2017-09-03T13:09:44.424Z,1.40
2017-09-03T13:12:12.910Z,1.90
2017-09-03T13:14:41.396Z,1.47
2017-09-03T13:17:09.889Z,1.40
2017-09-03T13:19:38.331Z,1.57
2017-09-03T13:22:07.574Z,1.37
2017-09-03T13:24:36.052Z,1.40
2017-09-03T13:27:04.623Z,1.40
2017-09-03T13:29:33.116Z,1.33
2017-09-03T13:32:01.587Z,2.20
2017-09-03T13:34:30.071Z,1.93
2017-09-03T13:36:58.557Z,1.40
2017-09-03T13:39:27.040Z,1.30
2017-09-03T13:41:55.515Z,1.67
2017-09-03T13:44:24.820Z,1.60
2017-09-03T13:46:53.313Z,1.20
2017-09-03T13:49:21.803Z,1.13
2017-09-03T13:51:50.263Z,1.73
2017-09-03T13:54:18.717Z,1.20
2017-09-03T13:56:47.143Z,1.13
2017-09-03T13:59:15.732Z,1.90
2017-09-03T14:01:44.210Z,1.60
2017-09-03T14:04:12.683Z,1.60
2017-09-03T14:06:41.168Z,1.60
2017-09-03T14:09:09.617Z,2.17
2017-09-03T14:11:38.803Z,1.90
2017-09-03T14:14:07.334Z,2.00
2017-09-03T14:16:35.799Z,1.97
2017-09-03T14:19:04.243Z,1.90
2017-09-03T14:21:32.679Z,2.17
2017-09-03T14:24:01.139Z,2.67
2017-09-03T14:26:29.866Z,1.53
2017-09-03T14:28:58.315Z,2.17
2017-09-03T14:31:26.813Z,1.90
2017-09-03T14:33:55.284Z,1.60
2017-09-03T14:36:23.782Z,1.53
2017-09-03T14:38:52.352Z,1.37
2017-09-03T14:41:20.830Z,1.43
2017-09-03T14:43:49.312Z,1.50
2017-09-03T14:46:17.763Z,1.40
2017-09-03T14:48:46.394Z,1.63
2017-09-03T14:51:14.857Z,1.30
2017-09-03T14:53:43.293Z,1.40
2017-09-03T14:56:11.731Z,1.33
2017-09-03T14:58:40.169Z,1.40
2017-09-03T15:01:08.625Z,1.80
2017-09-03T15:03:37.061Z,1.70
2017-09-03T15:06:05.559Z,1.47
2017-09-03T15:08:33.978Z,1.33
2017-09-03T15:11:02.414Z,1.70
2017-09-03T15:13:30.850Z,1.53
2017-09-03T15:15:59.371Z,1.37
2017-09-03T15:18:27.804Z,1.13
2017-09-03T15:20:56.334Z,1.33
2017-09-03T15:23:24.760Z,1.57
2017-09-03T15:25:53.295Z,1.20
2017-09-03T15:28:21.778Z,1.53
2017-09-03T15:30:50.269Z,2.30
2017-09-03T15:33:18.695Z,2.40
2017-09-03T15:35:47.232Z,2.60
2017-09-03T15:38:15.727Z,2.90
2017-09-03T15:40:44.147Z,1.80
2017-09-03T15:43:12.680Z,1.70
2017-09-03T15:45:41.151Z,2.00
2017-09-03T15:48:09.608Z,1.77
2017-09-03T15:50:38.117Z,1.57
2017-09-03T15:53:06.604Z,2.90
2017-09-03T15:55:35.032Z,2.03
2017-09-03T15:58:03.499Z,2.90
2017-09-03T16:00:31.938Z,1.87
2017-09-03T16:03:00.383Z,1.67
2017-09-03T16:05:28.903Z,1.73
2017-09-03T16:07:57.353Z,1.63
2017-09-03T16:10:25.884Z,2.60
2017-09-03T16:12:54.352Z,2.03
2017-09-03T16:15:22.845Z,1.57
2017-09-03T16:17:51.315Z,1.90
2017-09-03T16:20:19.798Z,1.67
2017-09-03T16:22:48.281Z,1.70
2017-09-03T16:25:16.778Z,1.70
2017-09-03T16:27:45.242Z,1.53
2017-09-03T16:30:13.742Z,1.47
2017-09-03T16:32:42.191Z,1.70
2017-09-03T16:35:10.632Z,1.60
2017-09-03T16:37:39.085Z,2.37
2017-09-03T16:40:07.511Z,1.63
2017-09-03T16:42:35.959Z,1.37
2017-09-03T16:45:04.453Z,1.90
2017-09-03T16:47:32.917Z,1.50
2017-09-03T16:50:01.353Z,1.50
2017-09-03T16:52:29.795Z,1.40
2017-09-03T16:54:58.225Z,2.50
2017-09-03T16:57:26.679Z,3.60
2017-09-03T16:59:55.118Z,4.83
2017-09-03T17:02:23.577Z,3.87
2017-09-03T17:04:51.995Z,3.83
2017-09-03T17:07:20.444Z,3.50
2017-09-03T17:09:48.881Z,2.53
2017-09-03T17:12:17.318Z,2.70
2017-09-03T17:14:45.749Z,4.63
2017-09-03T17:17:14.519Z,2.90
2017-09-03T17:19:42.956Z,2.20
2017-09-03T17:22:11.743Z,1.70
2017-09-03T17:24:40.192Z,1.83
2017-09-03T17:27:08.613Z,2.17
2017-09-03T17:29:37.065Z,1.67
2017-09-03T17:32:15.038Z,1.97
2017-09-03T17:37:53.373Z,3.67
2017-09-03T17:40:31.699Z,3.20
2017-09-03T17:43:01.941Z,2.17
2017-09-03T17:45:30.380Z,2.10
2017-09-03T17:47:58.832Z,2.87
2017-09-03T17:50:27.246Z,3.20
2017-09-03T17:52:55.683Z,3.13
2017-09-03T17:55:24.100Z,4.57
2017-09-03T17:57:52.530Z,3.60
2017-09-03T18:00:21.001Z,2.90
2017-09-03T18:02:49.442Z,2.77
2017-09-03T18:05:17.868Z,2.87
2017-09-03T18:07:46.336Z,3.20
2017-09-03T18:10:14.776Z,5.40
2017-09-03T18:12:43.212Z,2.00
2017-09-03T18:15:11.706Z,3.93
2017-09-03T18:17:40.135Z,2.57
2017-09-03T18:20:08.586Z,3.00
2017-09-03T18:22:37.007Z,3.57
2017-09-03T18:25:05.456Z,3.97
2017-09-03T18:27:33.875Z,4.57
2017-09-03T18:30:02.597Z,3.10
2017-09-03T18:32:31.019Z,4.27
2017-09-03T18:34:59.464Z,3.83
2017-09-03T18:40:34.980Z,4.00
2017-09-03T18:46:16.578Z,3.43
2017-09-03T18:48:45.041Z,3.30
2017-09-03T18:51:25.169Z,3.30
2017-09-03T18:53:53.963Z,2.50
2017-09-03T18:56:24.480Z,2.87
2017-09-03T19:01:52.901Z,2.80
2017-09-03T19:04:21.353Z,2.80
2017-09-03T19:06:49.789Z,2.40
2017-09-03T19:09:18.268Z,2.50
2017-09-03T19:11:46.796Z,2.20
2017-09-03T19:14:15.248Z,3.10
2017-09-03T19:16:43.667Z,2.63
2017-09-03T19:19:12.121Z,2.13
2017-09-03T19:21:40.552Z,2.50
2017-09-03T19:24:09.010Z,2.47
2017-09-03T19:26:37.433Z,2.60
2017-09-03T19:29:05.907Z,2.53
2017-09-03T19:31:34.327Z,2.40
2017-09-03T19:34:02.789Z,2.17
2017-09-03T19:36:31.211Z,1.83
2017-09-03T19:38:59.669Z,2.10
2017-09-03T19:41:28.103Z,2.43
2017-09-03T19:43:56.587Z,2.20
2017-09-03T19:46:25.070Z,2.20
2017-09-03T19:48:53.556Z,2.07
2017-09-03T19:51:21.985Z,2.43
2017-09-03T19:53:50.515Z,2.33
2017-09-03T19:56:18.964Z,2.00
2017-09-03T19:58:47.479Z,2.03
2017-09-03T20:01:15.963Z,2.50
2017-09-03T20:03:44.383Z,2.23
2017-09-03T20:06:12.929Z,2.90
2017-09-03T20:08:41.412Z,2.70
2017-09-03T20:11:09.863Z,2.47
2017-09-03T20:13:38.375Z,2.30
2017-09-03T20:16:06.851Z,3.33
2017-09-03T20:18:35.335Z,3.70
2017-09-03T20:21:03.770Z,2.60
2017-09-03T20:23:32.299Z,2.97
2017-09-03T20:26:00.782Z,3.20
2017-09-03T20:28:29.208Z,2.77
2017-09-03T20:30:57.753Z,2.87
2017-09-03T20:33:26.248Z,2.90
2017-09-03T20:35:54.716Z,2.73
2017-09-03T20:38:23.201Z,2.67
2017-09-03T20:40:51.635Z,2.73
2017-09-03T20:43:20.164Z,2.67
2017-09-03T20:45:48.603Z,2.70
2017-09-03T20:48:17.124Z,2.60
2017-09-03T20:50:45.600Z,2.10
2017-09-03T20:53:14.032Z,2.20
2017-09-03T20:55:42.486Z,2.43
2017-09-03T20:58:10.908Z,2.30
2017-09-03T21:00:39.448Z,2.63
2017-09-03T21:03:07.890Z,3.00
2017-09-03T21:05:36.331Z,3.07
2017-09-03T21:08:04.765Z,2.70
2017-09-03T21:10:33.218Z,3.40
2017-09-03T21:13:01.653Z,3.70
2017-09-03T21:15:30.130Z,3.23
2017-09-03T21:17:58.577Z,3.10
2017-09-03T21:20:27.788Z,3.00
2017-09-03T21:22:56.284Z,2.90
2017-09-03T21:25:24.769Z,3.37
2017-09-03T21:27:53.191Z,3.33
2017-09-03T21:30:21.641Z,3.80
2017-09-03T21:32:50.099Z,3.17
2017-09-03T21:35:18.588Z,3.50
2017-09-03T21:37:47.016Z,3.97
2017-09-03T21:40:15.469Z,3.23
2017-09-03T21:42:43.902Z,2.83
2017-09-03T21:45:12.406Z,3.33
2017-09-03T21:47:40.895Z,4.00
2017-09-03T21:50:09.370Z,4.20
2017-09-03T21:52:37.865Z,4.10
2017-09-03T21:55:06.335Z,3.47
2017-09-03T21:57:34.944Z,3.60
2017-09-03T22:00:03.408Z,3.40
2017-09-03T22:02:31.869Z,4.17
2017-09-03T22:05:00.362Z,4.30
2017-09-03T22:07:28.797Z,4.07
2017-09-03T22:09:57.330Z,3.80
2017-09-03T22:12:25.819Z,3.53
2017-09-03T22:14:54.316Z,3.57
2017-09-03T22:17:22.793Z,3.73
2017-09-03T22:19:51.243Z,4.23
2017-09-03T22:22:19.739Z,3.80
2017-09-03T22:24:48.223Z,4.23
2017-09-03T22:27:16.706Z,3.80
2017-09-03T22:29:45.196Z,4.23
2017-09-03T22:32:13.695Z,3.70
2017-09-03T22:34:42.152Z,3.90
2017-09-03T22:37:10.595Z,3.60
2017-09-03T22:39:39.019Z,3.90
2017-09-03T22:42:07.494Z,4.13
2017-09-03T22:44:35.983Z,3.90
2017-09-03T22:47:04.480Z,4.60
2017-09-03T22:49:32.947Z,4.70
2017-09-03T22:52:01.423Z,4.73
2017-09-03T22:54:29.912Z,5.23
2017-09-03T22:56:58.359Z,5.50
2017-09-03T22:59:26.880Z,3.80
2017-09-03T23:01:55.361Z,4.70
2017-09-03T23:04:23.798Z,4.47
2017-09-03T23:06:52.314Z,4.33
2017-09-03T23:09:20.804Z,4.07
2017-09-03T23:11:49.258Z,4.90
2017-09-03T23:14:17.705Z,4.67
2017-09-03T23:16:46.243Z,5.47
2017-09-03T23:19:14.736Z,5.37
2017-09-03T23:21:43.193Z,4.80
2017-09-03T23:24:12.392Z,4.53
2017-09-03T23:26:41.703Z,4.47
2017-09-03T23:29:10.205Z,4.77
2017-09-03T23:31:38.664Z,4.00
2017-09-03T23:34:07.091Z,4.50
2017-09-03T23:36:35.540Z,4.57
2017-09-03T23:39:04.041Z,5.40
2017-09-03T23:41:32.492Z,4.10
2017-09-03T23:44:00.979Z,5.80
2017-09-03T23:46:29.481Z,4.60
2017-09-03T23:48:57.921Z,4.67
2017-09-03T23:51:26.342Z,4.73
2017-09-03T23:53:54.806Z,4.77
2017-09-03T23:56:23.297Z,4.80
2017-09-03T23:58:51.781Z,4.40
